sensor_id;sensor_type;location;lat;lon;timestamp;P1;durP1;ratioP1;P2;durP2;ratioP2
25780;SDS011;13626;48.128;11.628;2023-02-01T00:01:22;4.30;;;2.40;;
25780;SDS011;13626;48.128;11.628;2023-02-01T00:03:50;3.20;;;2.40;;
25780;SDS011;13626;48.128;11.628;2023-02-01T00:06:17;6.93;;;3.05;;
25780;SDS011;13626;48.128;11.628;2023-02-01T00:08:44;3.53;;;2.70;;
25780;SDS011;13626;48.128;11.628;2023-02-01T00:11:12;5.47;;;2.45;;
25780;SDS011;13626;48.128;11.628;2023-02-01T00:13:40;4.00;;;3.08;;
25780;SDS011;13626;48.128;11.628;2023-02-01T00:18:35;5.32;;;2.65;;
25780;SDS011;13626;48.128;11.628;2023-02-01T00:21:02;4.97;;;2.63;;
25780;SDS011;13626;48.128;11.628;2023-02-01T00:23:31;5.13;;;2.70;;
25780;SDS011;13626;48.128;11.628;2023-02-01T00:26:03;5.10;;;2.83;;
25780;SDS011;13626;48.128;11.628;2023-02-01T00:28:30;3.33;;;2.63;;
25780;SDS011;13626;48.128;11.628;2023-02-01T00:30:59;3.15;;;2.20;;
25780;SDS011;13626;48.128;11.628;2023-02-01T00:33:27;3.05;;;2.42;;
25780;SDS011;13626;48.128;11.628;2023-02-01T00:36:02;4.50;;;2.47;;
25780;SDS011;13626;48.128;11.628;2023-02-01T00:38:29;4.15;;;2.67;;
25780;SDS011;13626;48.128;11.628;2023-02-01T00:41:03;4.18;;;2.50;;
25780;SDS011;13626;48.128;11.628;2023-02-01T00:43:31;3.30;;;2.63;;
25780;SDS011;13626;48.128;11.628;2023-02-01T00:45:58;4.13;;;2.40;;
25780;SDS011;13626;48.128;11.628;2023-02-01T00:48:26;4.28;;;2.67;;
25780;SDS011;13626;48.128;11.628;2023-02-01T00:50:53;3.13;;;2.20;;
25780;SDS011;13626;48.128;11.628;2023-02-01T00:53:20;4.50;;;2.58;;
25780;SDS011;13626;48.128;11.628;2023-02-01T00:55:48;4.00;;;2.60;;
25780;SDS011;13626;48.128;11.628;2023-02-01T00:58:15;4.95;;;3.13;;
25780;SDS011;13626;48.128;11.628;2023-02-01T01:00:43;6.00;;;3.13;;
25780;SDS011;13626;48.128;11.628;2023-02-01T01:03:10;4.10;;;2.50;;
25780;SDS011;13626;48.128;11.628;2023-02-01T01:05:47;5.97;;;2.80;;
25780;SDS011;13626;48.128;11.628;2023-02-01T01:08:15;4.43;;;2.78;;
25780;SDS011;13626;48.128;11.628;2023-02-01T01:10:43;5.63;;;3.10;;
25780;SDS011;13626;48.128;11.628;2023-02-01T01:13:10;6.68;;;3.33;;
25780;SDS011;13626;48.128;11.628;2023-02-01T01:15:38;6.25;;;2.78;;
25780;SDS011;13626;48.128;11.628;2023-02-01T01:18:06;5.93;;;3.25;;
25780;SDS011;13626;48.128;11.628;2023-02-01T01:20:34;6.22;;;3.20;;
25780;SDS011;13626;48.128;11.628;2023-02-01T01:23:02;6.00;;;4.00;;
25780;SDS011;13626;48.128;11.628;2023-02-01T01:25:29;8.55;;;3.95;;
25780;SDS011;13626;48.128;11.628;2023-02-01T01:27:57;4.60;;;3.22;;
25780;SDS011;13626;48.128;11.628;2023-02-01T01:30:24;7.30;;;3.20;;
25780;SDS011;13626;48.128;11.628;2023-02-01T01:32:51;8.93;;;3.72;;
25780;SDS011;13626;48.128;11.628;2023-02-01T01:35:19;8.68;;;3.28;;
25780;SDS011;13626;48.128;11.628;2023-02-01T01:37:46;7.35;;;4.45;;
25780;SDS011;13626;48.128;11.628;2023-02-01T01:40:13;5.35;;;3.72;;
25780;SDS011;13626;48.128;11.628;2023-02-01T01:42:41;5.47;;;3.80;;
25780;SDS011;13626;48.128;11.628;2023-02-01T01:47:41;5.07;;;3.20;;
25780;SDS011;13626;48.128;11.628;2023-02-01T01:50:09;6.18;;;3.80;;
25780;SDS011;13626;48.128;11.628;2023-02-01T01:52:37;6.68;;;3.83;;
25780;SDS011;13626;48.128;11.628;2023-02-01T01:55:05;6.13;;;3.80;;
25780;SDS011;13626;48.128;11.628;2023-02-01T01:57:36;8.73;;;3.97;;
25780;SDS011;13626;48.128;11.628;2023-02-01T02:02:33;6.55;;;3.97;;
25780;SDS011;13626;48.128;11.628;2023-02-01T02:05:01;6.80;;;3.88;;
25780;SDS011;13626;48.128;11.628;2023-02-01T02:07:30;6.55;;;4.15;;
25780;SDS011;13626;48.128;11.628;2023-02-01T02:09:58;7.10;;;4.43;;
25780;SDS011;13626;48.128;11.628;2023-02-01T02:12:27;7.97;;;4.93;;
25780;SDS011;13626;48.128;11.628;2023-02-01T02:14:54;6.63;;;4.20;;
25780;SDS011;13626;48.128;11.628;2023-02-01T02:33:32;7.15;;;4.10;;
25780;SDS011;13626;48.128;11.628;2023-02-01T02:38:41;7.50;;;4.32;;
25780;SDS011;13626;48.128;11.628;2023-02-01T02:44:00;8.32;;;4.35;;
25780;SDS011;13626;48.128;11.628;2023-02-01T02:46:51;6.50;;;3.97;;
25780;SDS011;13626;48.128;11.628;2023-02-01T02:52:12;9.30;;;4.70;;
25780;SDS011;13626;48.128;11.628;2023-02-01T02:54:59;8.18;;;4.38;;
25780;SDS011;13626;48.128;11.628;2023-02-01T02:57:28;5.93;;;3.80;;
25780;SDS011;13626;48.128;11.628;2023-02-01T03:00:17;10.07;;;5.15;;
25780;SDS011;13626;48.128;11.628;2023-02-01T03:03:03;6.10;;;3.65;;
25780;SDS011;13626;48.128;11.628;2023-02-01T03:05:49;7.80;;;4.00;;
25780;SDS011;13626;48.128;11.628;2023-02-01T03:08:24;6.82;;;3.88;;
25780;SDS011;13626;48.128;11.628;2023-02-01T03:18:18;6.28;;;4.13;;
25780;SDS011;13626;48.128;11.628;2023-02-01T03:20:46;7.78;;;4.30;;
25780;SDS011;13626;48.128;11.628;2023-02-01T03:23:16;6.78;;;3.70;;
25780;SDS011;13626;48.128;11.628;2023-02-01T03:25:43;7.78;;;4.30;;
25780;SDS011;13626;48.128;11.628;2023-02-01T03:28:11;6.35;;;3.58;;
25780;SDS011;13626;48.128;11.628;2023-02-01T03:30:39;5.90;;;3.97;;
25780;SDS011;13626;48.128;11.628;2023-02-01T03:33:09;6.80;;;3.85;;
25780;SDS011;13626;48.128;11.628;2023-02-01T03:38:21;6.15;;;3.63;;
25780;SDS011;13626;48.128;11.628;2023-02-01T03:43:39;4.97;;;3.67;;
25780;SDS011;13626;48.128;11.628;2023-02-01T03:46:09;5.80;;;3.85;;
25780;SDS011;13626;48.128;11.628;2023-02-01T03:48:39;4.68;;;3.72;;
25780;SDS011;13626;48.128;11.628;2023-02-01T03:51:07;5.25;;;3.33;;
25780;SDS011;13626;48.128;11.628;2023-02-01T03:53:35;7.43;;;3.97;;
25780;SDS011;13626;48.128;11.628;2023-02-01T03:56:03;6.13;;;3.60;;
25780;SDS011;13626;48.128;11.628;2023-02-01T03:58:30;5.40;;;3.60;;
25780;SDS011;13626;48.128;11.628;2023-02-01T04:00:58;4.93;;;3.67;;
25780;SDS011;13626;48.128;11.628;2023-02-01T04:03:26;7.53;;;3.58;;
25780;SDS011;13626;48.128;11.628;2023-02-01T04:05:53;4.93;;;3.47;;
25780;SDS011;13626;48.128;11.628;2023-02-01T04:08:21;6.65;;;3.42;;
25780;SDS011;13626;48.128;11.628;2023-02-01T04:10:48;5.03;;;3.97;;
25780;SDS011;13626;48.128;11.628;2023-02-01T04:13:15;5.47;;;3.28;;
25780;SDS011;13626;48.128;11.628;2023-02-01T04:15:43;6.30;;;3.55;;
25780;SDS011;13626;48.128;11.628;2023-02-01T04:18:11;5.22;;;3.35;;
25780;SDS011;13626;48.128;11.628;2023-02-01T04:20:39;6.80;;;3.38;;
25780;SDS011;13626;48.128;11.628;2023-02-01T04:23:06;8.63;;;3.75;;
25780;SDS011;13626;48.128;11.628;2023-02-01T04:25:33;4.95;;;3.60;;
25780;SDS011;13626;48.128;11.628;2023-02-01T04:28:00;4.43;;;3.17;;
25780;SDS011;13626;48.128;11.628;2023-02-01T04:30:27;5.72;;;3.22;;
25780;SDS011;13626;48.128;11.628;2023-02-01T04:32:55;4.88;;;3.70;;
25780;SDS011;13626;48.128;11.628;2023-02-01T04:35:22;6.25;;;3.50;;
25780;SDS011;13626;48.128;11.628;2023-02-01T04:37:49;5.93;;;3.35;;
25780;SDS011;13626;48.128;11.628;2023-02-01T04:40:17;5.68;;;3.50;;
25780;SDS011;13626;48.128;11.628;2023-02-01T04:42:44;5.78;;;3.47;;
25780;SDS011;13626;48.128;11.628;2023-02-01T04:45:11;6.57;;;3.75;;
25780;SDS011;13626;48.128;11.628;2023-02-01T04:47:39;5.18;;;3.22;;
25780;SDS011;13626;48.128;11.628;2023-02-01T04:50:06;5.32;;;3.40;;
25780;SDS011;13626;48.128;11.628;2023-02-01T04:52:36;5.93;;;3.38;;
25780;SDS011;13626;48.128;11.628;2023-02-01T04:55:04;7.93;;;3.33;;
25780;SDS011;13626;48.128;11.628;2023-02-01T04:57:31;7.28;;;3.60;;
25780;SDS011;13626;48.128;11.628;2023-02-01T04:59:58;6.00;;;3.35;;
25780;SDS011;13626;48.128;11.628;2023-02-01T05:02:25;6.65;;;3.83;;
25780;SDS011;13626;48.128;11.628;2023-02-01T05:04:53;6.15;;;3.78;;
25780;SDS011;13626;48.128;11.628;2023-02-01T05:07:22;5.57;;;3.55;;
25780;SDS011;13626;48.128;11.628;2023-02-01T05:09:49;4.93;;;3.30;;
25780;SDS011;13626;48.128;11.628;2023-02-01T05:12:17;7.18;;;4.07;;
25780;SDS011;13626;48.128;11.628;2023-02-01T05:15:02;5.38;;;3.70;;
25780;SDS011;13626;48.128;11.628;2023-02-01T05:17:30;6.63;;;3.90;;
25780;SDS011;13626;48.128;11.628;2023-02-01T05:19:57;5.63;;;3.75;;
25780;SDS011;13626;48.128;11.628;2023-02-01T05:22:24;5.82;;;3.97;;
25780;SDS011;13626;48.128;11.628;2023-02-01T05:24:51;10.40;;;4.47;;
25780;SDS011;13626;48.128;11.628;2023-02-01T05:27:18;7.18;;;4.28;;
25780;SDS011;13626;48.128;11.628;2023-02-01T05:29:46;9.55;;;3.70;;
25780;SDS011;13626;48.128;11.628;2023-02-01T05:32:13;7.95;;;4.30;;
25780;SDS011;13626;48.128;11.628;2023-02-01T05:34:48;7.18;;;4.22;;
25780;SDS011;13626;48.128;11.628;2023-02-01T05:37:15;7.50;;;4.13;;
25780;SDS011;13626;48.128;11.628;2023-02-01T05:39:42;6.20;;;4.10;;
25780;SDS011;13626;48.128;11.628;2023-02-01T05:42:10;7.18;;;4.25;;
25780;SDS011;13626;48.128;11.628;2023-02-01T05:44:37;6.10;;;4.30;;
25780;SDS011;13626;48.128;11.628;2023-02-01T05:47:04;8.10;;;4.68;;
25780;SDS011;13626;48.128;11.628;2023-02-01T05:49:31;6.43;;;4.30;;
25780;SDS011;13626;48.128;11.628;2023-02-01T05:51:58;5.25;;;3.88;;
25780;SDS011;13626;48.128;11.628;2023-02-01T05:54:26;5.35;;;3.83;;
25780;SDS011;13626;48.128;11.628;2023-02-01T05:56:53;7.97;;;4.30;;
25780;SDS011;13626;48.128;11.628;2023-02-01T05:59:20;8.00;;;4.30;;
25780;SDS011;13626;48.128;11.628;2023-02-01T06:01:47;6.78;;;3.70;;
25780;SDS011;13626;48.128;11.628;2023-02-01T06:04:15;6.90;;;3.90;;
25780;SDS011;13626;48.128;11.628;2023-02-01T06:06:42;6.45;;;4.13;;
25780;SDS011;13626;48.128;11.628;2023-02-01T06:09:09;8.77;;;4.20;;
25780;SDS011;13626;48.128;11.628;2023-02-01T06:11:36;7.80;;;4.05;;
25780;SDS011;13626;48.128;11.628;2023-02-01T06:14:03;6.60;;;4.10;;
25780;SDS011;13626;48.128;11.628;2023-02-01T06:16:31;6.97;;;4.47;;
25780;SDS011;13626;48.128;11.628;2023-02-01T06:18:58;6.55;;;3.72;;
25780;SDS011;13626;48.128;11.628;2023-02-01T06:21:26;8.88;;;4.70;;
25780;SDS011;13626;48.128;11.628;2023-02-01T06:23:53;6.68;;;4.28;;
25780;SDS011;13626;48.128;11.628;2023-02-01T06:26:21;7.60;;;4.30;;
25780;SDS011;13626;48.128;11.628;2023-02-01T06:28:48;7.75;;;3.80;;
25780;SDS011;13626;48.128;11.628;2023-02-01T06:31:16;6.63;;;4.00;;
25780;SDS011;13626;48.128;11.628;2023-02-01T06:33:43;7.93;;;4.47;;
25780;SDS011;13626;48.128;11.628;2023-02-01T06:36:12;5.82;;;3.85;;
25780;SDS011;13626;48.128;11.628;2023-02-01T06:38:39;7.05;;;3.80;;
25780;SDS011;13626;48.128;11.628;2023-02-01T06:41:06;6.88;;;4.03;;
25780;SDS011;13626;48.128;11.628;2023-02-01T06:43:34;6.72;;;3.97;;
25780;SDS011;13626;48.128;11.628;2023-02-01T06:46:02;5.40;;;3.88;;
25780;SDS011;13626;48.128;11.628;2023-02-01T06:48:29;6.43;;;3.90;;
25780;SDS011;13626;48.128;11.628;2023-02-01T06:50:57;7.45;;;3.90;;
25780;SDS011;13626;48.128;11.628;2023-02-01T06:53:24;7.50;;;3.65;;
25780;SDS011;13626;48.128;11.628;2023-02-01T06:55:59;6.53;;;3.63;;
25780;SDS011;13626;48.128;11.628;2023-02-01T06:58:30;6.15;;;3.75;;
25780;SDS011;13626;48.128;11.628;2023-02-01T07:00:58;7.18;;;3.40;;
25780;SDS011;13626;48.128;11.628;2023-02-01T07:03:25;4.95;;;3.45;;
25780;SDS011;13626;48.128;11.628;2023-02-01T07:05:56;5.70;;;3.80;;
25780;SDS011;13626;48.128;11.628;2023-02-01T07:08:27;6.10;;;3.70;;
25780;SDS011;13626;48.128;11.628;2023-02-01T07:10:54;8.25;;;3.85;;
25780;SDS011;13626;48.128;11.628;2023-02-01T07:13:21;5.95;;;3.53;;
25780;SDS011;13626;48.128;11.628;2023-02-01T07:15:49;6.28;;;3.90;;
25780;SDS011;13626;48.128;11.628;2023-02-01T07:18:16;9.23;;;3.55;;
25780;SDS011;13626;48.128;11.628;2023-02-01T07:20:43;5.00;;;3.45;;
25780;SDS011;13626;48.128;11.628;2023-02-01T07:23:16;6.20;;;3.63;;
25780;SDS011;13626;48.128;11.628;2023-02-01T07:25:43;9.13;;;3.95;;
25780;SDS011;13626;48.128;11.628;2023-02-01T07:28:10;6.15;;;3.45;;
25780;SDS011;13626;48.128;11.628;2023-02-01T07:30:37;5.80;;;3.35;;
25780;SDS011;13626;48.128;11.628;2023-02-01T07:33:06;3.95;;;2.83;;
25780;SDS011;13626;48.128;11.628;2023-02-01T07:35:33;7.13;;;3.20;;
25780;SDS011;13626;48.128;11.628;2023-02-01T07:38:01;7.38;;;3.60;;
25780;SDS011;13626;48.128;11.628;2023-02-01T07:40:28;4.82;;;3.05;;
25780;SDS011;13626;48.128;11.628;2023-02-01T07:42:56;8.65;;;3.30;;
25780;SDS011;13626;48.128;11.628;2023-02-01T07:45:23;4.47;;;2.80;;
25780;SDS011;13626;48.128;11.628;2023-02-01T07:47:51;5.35;;;3.17;;
25780;SDS011;13626;48.128;11.628;2023-02-01T07:50:19;6.97;;;2.90;;
25780;SDS011;13626;48.128;11.628;2023-02-01T07:52:46;5.63;;;3.17;;
25780;SDS011;13626;48.128;11.628;2023-02-01T07:55:14;4.43;;;2.30;;
25780;SDS011;13626;48.128;11.628;2023-02-01T07:57:41;5.00;;;2.53;;
25780;SDS011;13626;48.128;11.628;2023-02-01T08:00:08;5.18;;;2.80;;
25780;SDS011;13626;48.128;11.628;2023-02-01T08:02:57;4.70;;;2.50;;
25780;SDS011;13626;48.128;11.628;2023-02-01T08:05:24;4.50;;;2.90;;
25780;SDS011;13626;48.128;11.628;2023-02-01T08:07:51;4.68;;;2.42;;
25780;SDS011;13626;48.128;11.628;2023-02-01T08:10:18;5.13;;;2.55;;
25780;SDS011;13626;48.128;11.628;2023-02-01T08:12:46;8.70;;;3.10;;
25780;SDS011;13626;48.128;11.628;2023-02-01T08:15:15;4.47;;;2.42;;
25780;SDS011;13626;48.128;11.628;2023-02-01T08:17:46;4.55;;;2.53;;
25780;SDS011;13626;48.128;11.628;2023-02-01T08:20:13;3.25;;;2.40;;
25780;SDS011;13626;48.128;11.628;2023-02-01T08:22:40;3.92;;;2.50;;
25780;SDS011;13626;48.128;11.628;2023-02-01T08:25:07;5.88;;;2.55;;
25780;SDS011;13626;48.128;11.628;2023-02-01T08:27:35;4.18;;;2.30;;
25780;SDS011;13626;48.128;11.628;2023-02-01T08:30:03;10.32;;;2.78;;
25780;SDS011;13626;48.128;11.628;2023-02-01T08:32:31;4.45;;;2.20;;
25780;SDS011;13626;48.128;11.628;2023-02-01T08:34:58;4.63;;;2.50;;
25780;SDS011;13626;48.128;11.628;2023-02-01T08:37:25;9.15;;;3.22;;
25780;SDS011;13626;48.128;11.628;2023-02-01T08:39:52;14.75;;;7.18;;
25780;SDS011;13626;48.128;11.628;2023-02-01T08:42:19;7.32;;;4.15;;
25780;SDS011;13626;48.128;11.628;2023-02-01T08:45:05;4.50;;;2.38;;
25780;SDS011;13626;48.128;11.628;2023-02-01T08:47:34;6.47;;;2.55;;
25780;SDS011;13626;48.128;11.628;2023-02-01T08:50:02;4.30;;;2.85;;
25780;SDS011;13626;48.128;11.628;2023-02-01T08:52:29;5.93;;;2.40;;
25780;SDS011;13626;48.128;11.628;2023-02-01T08:54:57;3.05;;;2.25;;
25780;SDS011;13626;48.128;11.628;2023-02-01T08:57:24;5.82;;;2.58;;
25780;SDS011;13626;48.128;11.628;2023-02-01T08:59:51;4.18;;;2.40;;
25780;SDS011;13626;48.128;11.628;2023-02-01T09:02:18;3.50;;;2.40;;
25780;SDS011;13626;48.128;11.628;2023-02-01T09:04:45;3.03;;;2.17;;
25780;SDS011;13626;48.128;11.628;2023-02-01T09:07:12;2.85;;;2.10;;
25780;SDS011;13626;48.128;11.628;2023-02-01T09:09:40;4.25;;;2.33;;
25780;SDS011;13626;48.128;11.628;2023-02-01T09:12:07;5.00;;;2.30;;
25780;SDS011;13626;48.128;11.628;2023-02-01T09:14:34;5.18;;;3.60;;
25780;SDS011;13626;48.128;11.628;2023-02-01T09:17:02;5.55;;;2.63;;
25780;SDS011;13626;48.128;11.628;2023-02-01T09:19:29;6.55;;;2.53;;
25780;SDS011;13626;48.128;11.628;2023-02-01T09:21:56;3.10;;;2.60;;
25780;SDS011;13626;48.128;11.628;2023-02-01T09:24:23;5.32;;;2.45;;
25780;SDS011;13626;48.128;11.628;2023-02-01T09:26:51;4.75;;;2.22;;
25780;SDS011;13626;48.128;11.628;2023-02-01T09:29:18;3.30;;;2.28;;
25780;SDS011;13626;48.128;11.628;2023-02-01T09:31:46;2.92;;;1.95;;
25780;SDS011;13626;48.128;11.628;2023-02-01T09:34:28;5.35;;;2.53;;
25780;SDS011;13626;48.128;11.628;2023-02-01T09:36:55;2.75;;;2.15;;
25780;SDS011;13626;48.128;11.628;2023-02-01T09:39:23;3.88;;;2.13;;
25780;SDS011;13626;48.128;11.628;2023-02-01T09:41:53;4.13;;;2.10;;
25780;SDS011;13626;48.128;11.628;2023-02-01T09:46:55;3.95;;;2.17;;
25780;SDS011;13626;48.128;11.628;2023-02-01T09:49:25;4.47;;;2.20;;
25780;SDS011;13626;48.128;11.628;2023-02-01T09:51:54;4.25;;;2.40;;
25780;SDS011;13626;48.128;11.628;2023-02-01T09:54:24;5.10;;;2.13;;
25780;SDS011;13626;48.128;11.628;2023-02-01T09:56:56;5.50;;;2.30;;
25780;SDS011;13626;48.128;11.628;2023-02-01T10:02:01;6.63;;;2.33;;
25780;SDS011;13626;48.128;11.628;2023-02-01T10:04:28;4.90;;;2.20;;
25780;SDS011;13626;48.128;11.628;2023-02-01T10:07:02;7.20;;;2.65;;
25780;SDS011;13626;48.128;11.628;2023-02-01T10:17:37;3.95;;;2.30;;
25780;SDS011;13626;48.128;11.628;2023-02-01T10:22:44;4.25;;;2.10;;
25780;SDS011;13626;48.128;11.628;2023-02-01T10:26:18;7.75;;;2.60;;
25780;SDS011;13626;48.128;11.628;2023-02-01T10:28:19;4.75;;;2.45;;
25780;SDS011;13626;48.128;11.628;2023-02-01T10:30:48;3.80;;;2.10;;
25780;SDS011;13626;48.128;11.628;2023-02-01T10:35:44;4.65;;;2.65;;
25780;SDS011;13626;48.128;11.628;2023-02-01T10:38:17;4.82;;;2.30;;
25780;SDS011;13626;48.128;11.628;2023-02-01T10:40:45;4.75;;;2.22;;
25780;SDS011;13626;48.128;11.628;2023-02-01T10:43:13;4.30;;;2.30;;
25780;SDS011;13626;48.128;11.628;2023-02-01T10:45:40;3.15;;;2.10;;
25780;SDS011;13626;48.128;11.628;2023-02-01T10:48:08;3.55;;;2.10;;
25780;SDS011;13626;48.128;11.628;2023-02-01T10:50:41;6.10;;;2.45;;
25780;SDS011;13626;48.128;11.628;2023-02-01T10:53:15;4.10;;;2.33;;
25780;SDS011;13626;48.128;11.628;2023-02-01T10:55:48;3.40;;;2.08;;
25780;SDS011;13626;48.128;11.628;2023-02-01T10:58:20;10.90;;;2.53;;
25780;SDS011;13626;48.128;11.628;2023-02-01T11:03:27;6.40;;;2.60;;
25780;SDS011;13626;48.128;11.628;2023-02-01T11:05:57;4.85;;;2.80;;
25780;SDS011;13626;48.128;11.628;2023-02-01T11:08:24;8.25;;;3.15;;
25780;SDS011;13626;48.128;11.628;2023-02-01T11:10:59;3.97;;;2.40;;
25780;SDS011;13626;48.128;11.628;2023-02-01T11:13:29;4.90;;;2.67;;
25780;SDS011;13626;48.128;11.628;2023-02-01T11:15:57;4.88;;;2.55;;
25780;SDS011;13626;48.128;11.628;2023-02-01T11:18:25;4.80;;;2.70;;
25780;SDS011;13626;48.128;11.628;2023-02-01T11:20:53;3.70;;;2.47;;
25780;SDS011;13626;48.128;11.628;2023-02-01T11:23:22;4.53;;;2.72;;
25780;SDS011;13626;48.128;11.628;2023-02-01T11:25:51;3.60;;;2.80;;
25780;SDS011;13626;48.128;11.628;2023-02-01T11:28:20;4.72;;;2.80;;
25780;SDS011;13626;48.128;11.628;2023-02-01T11:30:48;5.85;;;3.15;;
25780;SDS011;13626;48.128;11.628;2023-02-01T11:33:17;5.63;;;2.55;;
25780;SDS011;13626;48.128;11.628;2023-02-01T11:35:45;7.68;;;3.15;;
25780;SDS011;13626;48.128;11.628;2023-02-01T11:38:21;3.58;;;2.60;;
25780;SDS011;13626;48.128;11.628;2023-02-01T11:43:18;5.78;;;3.13;;
25780;SDS011;13626;48.128;11.628;2023-02-01T11:46:47;6.60;;;3.00;;
25780;SDS011;13626;48.128;11.628;2023-02-01T11:48:42;4.22;;;2.58;;
25780;SDS011;13626;48.128;11.628;2023-02-01T12:01:31;5.95;;;3.20;;
25780;SDS011;13626;48.128;11.628;2023-02-01T12:04:07;6.57;;;2.70;;
25780;SDS011;13626;48.128;11.628;2023-02-01T12:21:51;12.02;;;3.42;;
25780;SDS011;13626;48.128;11.628;2023-02-01T12:26:59;7.70;;;3.30;;
25780;SDS011;13626;48.128;11.628;2023-02-01T12:29:38;4.25;;;2.92;;
25780;SDS011;13626;48.128;11.628;2023-02-01T12:40:30;4.65;;;2.40;;
25780;SDS011;13626;48.128;11.628;2023-02-01T12:42:38;10.07;;;2.72;;
25780;SDS011;13626;48.128;11.628;2023-02-01T12:47:48;8.57;;;3.47;;
25780;SDS011;13626;48.128;11.628;2023-02-01T12:50:28;6.03;;;2.53;;
25780;SDS011;13626;48.128;11.628;2023-02-01T12:53:19;6.03;;;2.70;;
25780;SDS011;13626;48.128;11.628;2023-02-01T12:55:51;13.93;;;3.30;;
25780;SDS011;13626;48.128;11.628;2023-02-01T12:58:21;6.75;;;3.25;;
25780;SDS011;13626;48.128;11.628;2023-02-01T13:00:51;10.75;;;2.63;;
25780;SDS011;13626;48.128;11.628;2023-02-01T13:03:34;5.53;;;2.45;;
25780;SDS011;13626;48.128;11.628;2023-02-01T13:06:15;4.55;;;2.20;;
25780;SDS011;13626;48.128;11.628;2023-02-01T13:08:47;6.65;;;2.83;;
25780;SDS011;13626;48.128;11.628;2023-02-01T13:11:17;8.23;;;2.53;;
25780;SDS011;13626;48.128;11.628;2023-02-01T13:16:16;6.13;;;2.55;;
25780;SDS011;13626;48.128;11.628;2023-02-01T13:18:50;5.32;;;2.53;;
25780;SDS011;13626;48.128;11.628;2023-02-01T13:21:24;8.52;;;2.42;;
25780;SDS011;13626;48.128;11.628;2023-02-01T13:23:52;5.20;;;2.70;;
25780;SDS011;13626;48.128;11.628;2023-02-01T13:26:20;5.60;;;2.42;;
25780;SDS011;13626;48.128;11.628;2023-02-01T13:28:48;6.28;;;2.50;;
25780;SDS011;13626;48.128;11.628;2023-02-01T13:33:56;7.47;;;2.67;;
25780;SDS011;13626;48.128;11.628;2023-02-01T13:39:13;9.57;;;2.88;;
25780;SDS011;13626;48.128;11.628;2023-02-01T13:42:02;5.13;;;2.65;;
25780;SDS011;13626;48.128;11.628;2023-02-01T13:44:36;4.68;;;2.72;;
25780;SDS011;13626;48.128;11.628;2023-02-01T13:47:11;8.68;;;2.92;;
25780;SDS011;13626;48.128;11.628;2023-02-01T13:49:39;6.07;;;2.90;;
25780;SDS011;13626;48.128;11.628;2023-02-01T13:52:17;4.13;;;2.80;;
25780;SDS011;13626;48.128;11.628;2023-02-01T13:54:48;6.63;;;2.85;;
25780;SDS011;13626;48.128;11.628;2023-02-01T14:00:05;7.38;;;3.22;;
25780;SDS011;13626;48.128;11.628;2023-02-01T14:02:44;4.68;;;2.97;;
25780;SDS011;13626;48.128;11.628;2023-02-01T14:10:53;4.93;;;2.60;;
25780;SDS011;13626;48.128;11.628;2023-02-01T14:26:27;4.25;;;2.38;;
25780;SDS011;13626;48.128;11.628;2023-02-01T14:34:18;4.13;;;2.78;;
25780;SDS011;13626;48.128;11.628;2023-02-01T14:36:51;5.13;;;3.30;;
25780;SDS011;13626;48.128;11.628;2023-02-01T14:39:25;7.47;;;2.33;;
25780;SDS011;13626;48.128;11.628;2023-02-01T14:41:54;7.53;;;2.08;;
25780;SDS011;13626;48.128;11.628;2023-02-01T14:44:29;7.25;;;2.80;;
25780;SDS011;13626;48.128;11.628;2023-02-01T14:47:03;6.10;;;3.17;;
25780;SDS011;13626;48.128;11.628;2023-02-01T14:49:32;4.82;;;2.80;;
25780;SDS011;13626;48.128;11.628;2023-02-01T14:52:01;8.88;;;2.78;;
25780;SDS011;13626;48.128;11.628;2023-02-01T14:54:29;4.68;;;2.50;;
25780;SDS011;13626;48.128;11.628;2023-02-01T14:56:56;4.57;;;2.20;;
25780;SDS011;13626;48.128;11.628;2023-02-01T14:59:24;3.92;;;2.15;;
25780;SDS011;13626;48.128;11.628;2023-02-01T15:01:54;7.35;;;2.60;;
25780;SDS011;13626;48.128;11.628;2023-02-01T15:04:24;6.70;;;3.08;;
25780;SDS011;13626;48.128;11.628;2023-02-01T15:09:27;7.50;;;2.53;;
25780;SDS011;13626;48.128;11.628;2023-02-01T15:14:23;10.20;;;3.60;;
25780;SDS011;13626;48.128;11.628;2023-02-01T15:16:50;8.93;;;2.83;;
25780;SDS011;13626;48.128;11.628;2023-02-01T15:19:21;12.98;;;2.83;;
25780;SDS011;13626;48.128;11.628;2023-02-01T15:21:49;6.13;;;3.40;;
25780;SDS011;13626;48.128;11.628;2023-02-01T15:24:24;7.47;;;2.45;;
25780;SDS011;13626;48.128;11.628;2023-02-01T15:26:52;4.78;;;2.67;;
25780;SDS011;13626;48.128;11.628;2023-02-01T15:29:21;5.78;;;2.63;;
25780;SDS011;13626;48.128;11.628;2023-02-01T15:31:49;3.40;;;2.30;;
25780;SDS011;13626;48.128;11.628;2023-02-01T15:34:18;7.10;;;3.30;;
25780;SDS011;13626;48.128;11.628;2023-02-01T15:36:46;6.85;;;2.95;;
25780;SDS011;13626;48.128;11.628;2023-02-01T15:39:28;8.13;;;3.47;;
25780;SDS011;13626;48.128;11.628;2023-02-01T15:41:59;7.05;;;2.58;;
25780;SDS011;13626;48.128;11.628;2023-02-01T15:44:37;4.22;;;2.17;;
25780;SDS011;13626;48.128;11.628;2023-02-01T15:47:14;3.10;;;1.88;;
25780;SDS011;13626;48.128;11.628;2023-02-01T15:49:43;4.32;;;2.10;;
25780;SDS011;13626;48.128;11.628;2023-02-01T15:52:22;5.57;;;2.53;;
25780;SDS011;13626;48.128;11.628;2023-02-01T15:54:52;6.95;;;2.95;;
25780;SDS011;13626;48.128;11.628;2023-02-01T15:57:28;6.03;;;2.25;;
25780;SDS011;13626;48.128;11.628;2023-02-01T16:00:03;8.73;;;3.20;;
25780;SDS011;13626;48.128;11.628;2023-02-01T16:02:35;6.07;;;2.75;;
25780;SDS011;13626;48.128;11.628;2023-02-01T16:05:06;6.78;;;2.65;;
25780;SDS011;13626;48.128;11.628;2023-02-01T16:08:10;6.43;;;2.88;;
25780;SDS011;13626;48.128;11.628;2023-02-01T16:10:39;7.47;;;2.70;;
25780;SDS011;13626;48.128;11.628;2023-02-01T16:13:07;5.63;;;2.60;;
25780;SDS011;13626;48.128;11.628;2023-02-01T16:15:35;6.72;;;2.28;;
25780;SDS011;13626;48.128;11.628;2023-02-01T16:18:03;4.82;;;1.85;;
25780;SDS011;13626;48.128;11.628;2023-02-01T16:20:30;3.13;;;1.90;;
25780;SDS011;13626;48.128;11.628;2023-02-01T16:22:59;5.07;;;2.00;;
25780;SDS011;13626;48.128;11.628;2023-02-01T16:25:26;4.93;;;2.25;;
25780;SDS011;13626;48.128;11.628;2023-02-01T16:27:53;7.68;;;2.70;;
25780;SDS011;13626;48.128;11.628;2023-02-01T16:30:20;5.40;;;1.83;;
25780;SDS011;13626;48.128;11.628;2023-02-01T16:32:56;7.63;;;2.10;;
25780;SDS011;13626;48.128;11.628;2023-02-01T16:35:25;5.63;;;2.00;;
25780;SDS011;13626;48.128;11.628;2023-02-01T16:37:53;6.50;;;2.03;;
25780;SDS011;13626;48.128;11.628;2023-02-01T16:40:20;10.27;;;2.47;;
25780;SDS011;13626;48.128;11.628;2023-02-01T16:42:49;4.28;;;2.28;;
25780;SDS011;13626;48.128;11.628;2023-02-01T16:45:16;6.90;;;1.98;;
25780;SDS011;13626;48.128;11.628;2023-02-01T16:47:47;4.72;;;2.60;;
25780;SDS011;13626;48.128;11.628;2023-02-01T16:50:18;5.68;;;2.40;;
25780;SDS011;13626;48.128;11.628;2023-02-01T16:52:49;3.85;;;2.30;;
25780;SDS011;13626;48.128;11.628;2023-02-01T16:55:17;6.22;;;2.20;;
25780;SDS011;13626;48.128;11.628;2023-02-01T16:57:46;6.18;;;2.22;;
25780;SDS011;13626;48.128;11.628;2023-02-01T17:00:13;11.20;;;3.15;;
25780;SDS011;13626;48.128;11.628;2023-02-01T17:02:50;4.25;;;2.13;;
25780;SDS011;13626;48.128;11.628;2023-02-01T17:05:18;4.70;;;1.90;;
25780;SDS011;13626;48.128;11.628;2023-02-01T17:07:45;6.90;;;2.47;;
25780;SDS011;13626;48.128;11.628;2023-02-01T17:10:22;5.65;;;1.83;;
25780;SDS011;13626;48.128;11.628;2023-02-01T17:12:59;4.50;;;2.10;;
25780;SDS011;13626;48.128;11.628;2023-02-01T17:15:27;6.90;;;2.00;;